createdAt,value
2022-10-31T00:00:32.169Z,27.05
2022-10-31T00:02:59.143Z,22.50
2022-10-31T00:05:26.046Z,29.00
2022-10-31T00:07:53.872Z,28.45
2022-10-31T00:10:20.517Z,21.90
2022-10-31T00:12:47.164Z,26.17
2022-10-31T00:15:13.874Z,20.95
2022-10-31T00:17:40.537Z,24.02
2022-10-31T00:20:07.753Z,24.60
2022-10-31T00:22:34.391Z,25.85
2022-10-31T00:25:01.222Z,23.77
2022-10-31T00:27:27.851Z,19.40
2022-10-31T00:29:55.370Z,25.15
2022-10-31T00:32:22.032Z,25.33
2022-10-31T00:34:48.688Z,19.42
2022-10-31T00:37:15.374Z,22.00
2022-10-31T00:39:46.034Z,21.85
2022-10-31T00:42:12.897Z,22.05
2022-10-31T00:44:43.222Z,17.83
2022-10-31T00:47:09.868Z,24.58
2022-10-31T00:49:36.957Z,27.42
2022-10-31T00:52:03.631Z,23.60
2022-10-31T00:54:31.799Z,24.15
2022-10-31T00:56:58.723Z,26.60
2022-10-31T00:59:25.418Z,26.95
2022-10-31T01:01:52.204Z,34.83
2022-10-31T01:04:19.013Z,28.83
2022-10-31T01:06:45.697Z,21.67
2022-10-31T01:09:12.376Z,24.30
2022-10-31T01:11:39.596Z,29.23
2022-10-31T01:14:09.614Z,21.08
2022-10-31T01:16:36.331Z,25.42
2022-10-31T01:19:03.202Z,25.52
2022-10-31T01:21:30.570Z,26.67
2022-10-31T01:24:02.923Z,24.10
2022-10-31T01:26:34.146Z,30.48
2022-10-31T01:29:06.385Z,25.15
2022-10-31T01:31:35.900Z,22.75
2022-10-31T01:34:03.903Z,24.55
2022-10-31T01:36:33.566Z,23.50
2022-10-31T01:39:08.872Z,19.15
2022-10-31T01:41:39.868Z,21.83
2022-10-31T01:44:17.375Z,22.70
2022-10-31T01:46:51.334Z,21.70
2022-10-31T01:49:24.617Z,21.60
2022-10-31T01:52:04.974Z,20.42
2022-10-31T01:54:36.875Z,20.15
2022-10-31T01:57:06.050Z,22.42
2022-10-31T01:59:36.462Z,23.27
2022-10-31T02:02:03.485Z,22.73
2022-10-31T02:04:30.584Z,24.83
2022-10-31T02:07:15.906Z,22.95
2022-10-31T02:09:44.123Z,19.65
2022-10-31T02:12:11.691Z,20.17
2022-10-31T02:14:39.354Z,16.60
2022-10-31T02:17:06.040Z,19.38
2022-10-31T02:19:57.704Z,18.40
2022-10-31T02:23:01.805Z,20.98
2022-10-31T02:25:52.977Z,16.88
2022-10-31T02:28:42.850Z,16.90
2022-10-31T02:31:26.344Z,19.50
2022-10-31T02:34:09.433Z,18.35
2022-10-31T02:36:45.627Z,17.95
2022-10-31T02:39:25.085Z,20.27
2022-10-31T02:42:09.954Z,16.08
2022-10-31T02:45:01.336Z,13.85
2022-10-31T02:47:30.965Z,16.02
2022-10-31T02:50:03.591Z,14.73
2022-10-31T02:55:24.005Z,16.05
2022-10-31T02:57:58.102Z,12.27
2022-10-31T03:00:27.681Z,15.15
2022-10-31T03:03:20.446Z,14.65
2022-10-31T03:05:53.019Z,17.40
2022-10-31T03:10:57.170Z,13.32
2022-10-31T03:13:41.840Z,13.35
2022-10-31T03:16:15.116Z,14.75
2022-10-31T03:18:56.734Z,18.73
2022-10-31T03:21:48.032Z,17.35
2022-10-31T03:24:16.907Z,16.63
2022-10-31T03:26:47.732Z,12.57
2022-10-31T03:29:19.514Z,15.63
2022-10-31T03:31:51.123Z,13.90
2022-10-31T03:34:20.164Z,10.87
2022-10-31T03:36:52.036Z,11.82
2022-10-31T03:39:21.633Z,11.43
2022-10-31T03:42:06.962Z,11.68
2022-10-31T03:44:35.516Z,11.23
2022-10-31T03:47:05.172Z,12.20
2022-10-31T03:49:33.469Z,11.93
2022-10-31T03:52:14.561Z,9.38
2022-10-31T03:54:46.749Z,8.10
2022-10-31T03:57:38.718Z,8.40
2022-10-31T04:00:12.421Z,6.45
2022-10-31T04:03:15.057Z,5.28
2022-10-31T04:05:48.120Z,4.32
2022-10-31T04:08:20.825Z,4.07
2022-10-31T04:10:50.005Z,4.95
2022-10-31T04:13:26.852Z,3.42
2022-10-31T04:16:02.353Z,2.92
2022-10-31T04:18:29.573Z,3.25
2022-10-31T04:21:07.830Z,5.65
2022-10-31T04:23:36.015Z,4.20
2022-10-31T04:26:13.444Z,4.15
2022-10-31T04:28:40.180Z,3.22
2022-10-31T04:31:07.340Z,2.97
2022-10-31T04:33:37.482Z,4.40
2022-10-31T04:36:07.997Z,5.32
2022-10-31T04:38:35.173Z,3.67
2022-10-31T04:41:05.898Z,4.10
2022-10-31T04:43:47.506Z,4.13
2022-10-31T04:46:14.455Z,5.65
2022-10-31T04:48:41.250Z,3.78
2022-10-31T04:51:08.221Z,4.15
2022-10-31T04:53:35.186Z,3.83
2022-10-31T04:56:24.957Z,4.80
2022-10-31T04:58:57.683Z,4.03
2022-10-31T05:01:25.896Z,4.10
2022-10-31T05:03:52.598Z,4.90
2022-10-31T05:06:19.515Z,4.93
2022-10-31T05:08:46.742Z,5.05
2022-10-31T05:11:15.451Z,5.43
2022-10-31T05:13:44.017Z,8.95
2022-10-31T05:16:13.322Z,13.77
2022-10-31T05:19:03.030Z,10.35
2022-10-31T05:21:48.373Z,11.88
2022-10-31T05:24:15.121Z,14.57
2022-10-31T05:26:47.311Z,13.45
2022-10-31T05:29:14.233Z,20.83
2022-10-31T05:31:41.202Z,17.05
2022-10-31T05:34:14.897Z,14.70
2022-10-31T05:37:13.449Z,16.70
2022-10-31T05:39:40.125Z,17.98
2022-10-31T05:44:40.318Z,16.15
2022-10-31T05:47:33.097Z,12.18
2022-10-31T05:50:38.077Z,14.38
2022-10-31T05:53:12.257Z,13.32
2022-10-31T05:55:41.664Z,14.25
2022-10-31T05:58:13.875Z,11.27
2022-10-31T06:00:46.591Z,11.95
2022-10-31T06:03:13.433Z,9.35
2022-10-31T06:05:55.265Z,9.48
2022-10-31T06:08:25.189Z,10.57
2022-10-31T06:10:54.069Z,7.97
2022-10-31T06:13:29.131Z,8.00
2022-10-31T06:16:01.546Z,9.88
2022-10-31T06:18:34.950Z,10.20
2022-10-31T06:21:01.772Z,7.63
2022-10-31T06:23:28.982Z,7.68
2022-10-31T06:26:15.793Z,9.30
2022-10-31T06:28:42.798Z,10.05
2022-10-31T06:31:17.844Z,10.10
2022-10-31T06:33:44.879Z,11.57
2022-10-31T06:36:11.653Z,9.70
2022-10-31T06:38:38.401Z,14.50
2022-10-31T06:41:08.336Z,11.88
2022-10-31T06:43:41.966Z,14.77
2022-10-31T06:46:26.673Z,13.95
2022-10-31T06:49:08.473Z,12.50
2022-10-31T06:51:52.097Z,12.00
2022-10-31T06:54:18.934Z,11.95
2022-10-31T06:56:48.508Z,12.07
2022-10-31T06:59:16.062Z,12.50
2022-10-31T07:02:12.728Z,12.02
2022-10-31T07:04:42.104Z,12.57
2022-10-31T07:07:10.981Z,10.75
2022-10-31T07:09:38.513Z,11.88
2022-10-31T07:12:05.892Z,12.07
2022-10-31T07:14:36.728Z,12.48
2022-10-31T07:17:03.425Z,11.68
2022-10-31T07:19:37.237Z,11.48
2022-10-31T07:22:03.959Z,11.90
2022-10-31T07:24:31.629Z,10.80
2022-10-31T07:29:29.952Z,11.73
2022-10-31T07:31:56.846Z,15.05
2022-10-31T07:34:27.343Z,16.38
2022-10-31T07:36:56.725Z,16.15
2022-10-31T07:39:23.465Z,19.05
2022-10-31T07:41:50.405Z,17.17
2022-10-31T07:44:19.485Z,16.52
2022-10-31T07:47:04.384Z,18.33
2022-10-31T07:49:51.014Z,18.90
2022-10-31T07:52:36.809Z,23.95
2022-10-31T07:55:25.273Z,26.23
2022-10-31T07:58:02.235Z,23.70
2022-10-31T08:00:30.384Z,26.15
2022-10-31T08:03:04.283Z,24.83
2022-10-31T08:06:00.068Z,24.00
2022-10-31T08:08:41.642Z,26.17
2022-10-31T08:11:09.550Z,22.83
2022-10-31T08:13:36.231Z,23.70
2022-10-31T08:16:05.200Z,21.13
2022-10-31T08:18:35.329Z,25.85
2022-10-31T08:21:04.150Z,26.23
2022-10-31T08:23:30.798Z,23.67
2022-10-31T08:25:58.516Z,22.80
2022-10-31T08:28:25.352Z,25.80
2022-10-31T08:30:54.069Z,24.88
2022-10-31T08:33:43.822Z,25.23
2022-10-31T08:36:19.849Z,24.45
2022-10-31T08:39:06.802Z,27.13
2022-10-31T08:41:34.098Z,28.92
2022-10-31T08:44:01.406Z,26.33
2022-10-31T08:46:28.072Z,26.30
2022-10-31T08:48:55.181Z,26.88
2022-10-31T08:51:23.295Z,25.55
2022-10-31T08:53:53.223Z,27.50
2022-10-31T08:56:38.566Z,31.05
2022-10-31T08:59:16.137Z,29.58
2022-10-31T09:02:06.461Z,28.50
2022-10-31T09:04:34.308Z,31.15
2022-10-31T09:07:20.129Z,32.22
2022-10-31T09:09:49.905Z,32.97
2022-10-31T09:12:18.653Z,28.25
2022-10-31T09:15:17.558Z,30.13
2022-10-31T09:17:49.057Z,33.08
2022-10-31T09:20:23.057Z,31.02
2022-10-31T09:23:01.472Z,30.63
2022-10-31T09:25:30.514Z,29.35
2022-10-31T09:28:29.491Z,26.50
2022-10-31T09:31:01.217Z,28.10
2022-10-31T09:33:47.872Z,29.02
2022-10-31T09:36:34.498Z,26.98
2022-10-31T09:39:01.177Z,26.40
2022-10-31T09:42:04.871Z,31.23
2022-10-31T09:44:51.310Z,28.27
2022-10-31T09:47:49.373Z,27.58
2022-10-31T09:50:49.124Z,28.65
2022-10-31T09:53:43.769Z,24.58
2022-10-31T09:56:16.052Z,27.52
2022-10-31T09:58:48.672Z,27.20
2022-10-31T10:03:52.914Z,27.33
2022-10-31T10:06:43.735Z,26.25
2022-10-31T10:09:29.871Z,25.30
2022-10-31T10:12:21.312Z,24.92
2022-10-31T10:15:17.294Z,26.08
2022-10-31T10:17:55.117Z,24.83
2022-10-31T10:20:31.852Z,18.80
2022-10-31T10:23:17.525Z,23.10
2022-10-31T10:25:50.925Z,23.98
2022-10-31T10:28:28.675Z,27.73
2022-10-31T10:31:10.690Z,24.35
2022-10-31T10:33:45.716Z,25.35
2022-10-31T10:36:20.582Z,26.75
2022-10-31T10:38:53.006Z,23.08
2022-10-31T10:41:23.455Z,23.92
2022-10-31T10:43:51.834Z,20.65
2022-10-31T10:46:37.228Z,22.42
2022-10-31T10:49:22.643Z,20.40
2022-10-31T10:52:19.278Z,19.58
2022-10-31T10:55:07.017Z,20.13
2022-10-31T10:57:57.394Z,17.65
2022-10-31T11:00:28.241Z,15.15
2022-10-31T11:02:55.883Z,20.45
2022-10-31T11:05:25.103Z,17.90
2022-10-31T11:07:52.033Z,16.17
2022-10-31T11:10:18.814Z,15.75
2022-10-31T11:13:02.116Z,18.45
2022-10-31T11:15:31.794Z,15.30
2022-10-31T11:17:58.806Z,15.82
2022-10-31T11:20:35.555Z,16.63
2022-10-31T11:23:19.426Z,17.88
2022-10-31T11:28:26.400Z,15.18
2022-10-31T11:30:59.364Z,16.63
2022-10-31T11:33:37.502Z,14.38
2022-10-31T11:36:21.864Z,18.70
2022-10-31T11:38:49.737Z,20.08
2022-10-31T11:41:24.563Z,19.88
2022-10-31T11:44:03.856Z,15.93
2022-10-31T11:46:52.258Z,16.30
2022-10-31T11:49:24.094Z,15.35
2022-10-31T11:51:54.978Z,14.13
2022-10-31T11:54:31.574Z,15.20
2022-10-31T11:57:01.169Z,11.98
2022-10-31T11:59:30.187Z,13.20
2022-10-31T12:01:59.979Z,13.13
2022-10-31T12:04:35.861Z,11.25
2022-10-31T12:07:02.745Z,13.73
2022-10-31T12:09:33.695Z,13.48
2022-10-31T12:12:12.646Z,14.20
2022-10-31T12:14:59.346Z,19.38
2022-10-31T12:17:45.111Z,12.43
2022-10-31T12:20:21.704Z,12.32
2022-10-31T12:23:20.547Z,13.50
2022-10-31T12:26:26.167Z,12.90
2022-10-31T12:29:30.109Z,13.43
2022-10-31T12:32:25.343Z,8.27
2022-10-31T12:35:10.436Z,8.88
2022-10-31T12:37:49.247Z,7.82
2022-10-31T12:40:57.197Z,10.02
2022-10-31T12:43:35.595Z,9.57
2022-10-31T12:46:06.026Z,8.32
2022-10-31T12:48:57.253Z,9.43
2022-10-31T12:52:04.207Z,9.35
2022-10-31T12:54:48.751Z,11.45
2022-10-31T12:57:32.368Z,8.40
2022-10-31T13:00:11.482Z,8.55
2022-10-31T13:02:41.693Z,7.93
2022-10-31T13:05:25.939Z,9.07
2022-10-31T13:07:58.868Z,9.90
2022-10-31T13:10:32.886Z,10.35
2022-10-31T13:13:07.804Z,16.27
2022-10-31T13:15:42.061Z,12.30
2022-10-31T13:18:23.931Z,14.50
2022-10-31T13:20:55.539Z,12.93
2022-10-31T13:29:14.594Z,13.77
2022-10-31T13:31:42.727Z,13.55
2022-10-31T13:34:24.766Z,12.35
2022-10-31T13:37:28.904Z,17.67
2022-10-31T13:40:08.006Z,12.25
2022-10-31T13:43:03.730Z,14.20
2022-10-31T13:45:30.581Z,12.93
2022-10-31T13:47:57.457Z,12.80
2022-10-31T13:50:32.486Z,12.55
2022-10-31T13:53:23.829Z,13.48
2022-10-31T13:56:03.939Z,12.07
2022-10-31T13:58:32.382Z,13.05
2022-10-31T14:01:25.810Z,15.80
2022-10-31T14:04:13.967Z,10.90
2022-10-31T14:06:52.084Z,15.38
2022-10-31T14:09:36.991Z,16.42
2022-10-31T14:12:22.221Z,11.18
2022-10-31T14:14:52.206Z,15.68
2022-10-31T14:17:26.216Z,12.50
2022-10-31T14:20:23.278Z,14.85
2022-10-31T14:22:50.238Z,13.02
2022-10-31T14:25:31.980Z,11.48
2022-10-31T14:28:00.501Z,13.25
2022-10-31T14:30:29.651Z,13.45
2022-10-31T14:33:20.310Z,14.30
2022-10-31T14:36:11.976Z,13.73
2022-10-31T14:39:00.910Z,17.58
2022-10-31T14:41:53.416Z,14.30
2022-10-31T14:44:57.494Z,15.40
2022-10-31T14:48:06.889Z,16.48
2022-10-31T14:50:50.947Z,15.77
2022-10-31T14:56:10.002Z,14.23
2022-10-31T14:58:41.585Z,16.85
2022-10-31T15:01:08.618Z,17.00
2022-10-31T15:03:44.559Z,17.92
2022-10-31T15:06:23.463Z,20.63
2022-10-31T15:08:52.566Z,15.13
2022-10-31T15:11:25.587Z,19.27
2022-10-31T15:13:57.582Z,20.52
2022-10-31T15:16:27.943Z,20.50
2022-10-31T15:18:56.933Z,16.00
2022-10-31T15:21:25.665Z,20.83
2022-10-31T15:23:54.886Z,16.27
2022-10-31T15:26:24.849Z,20.98
2022-10-31T15:29:02.835Z,20.60
2022-10-31T15:31:31.823Z,22.15
2022-10-31T15:34:12.841Z,26.88
2022-10-31T15:36:40.115Z,30.50
2022-10-31T15:39:10.244Z,20.73
2022-10-31T15:41:54.850Z,17.45
2022-10-31T15:44:42.095Z,16.42
2022-10-31T15:47:17.899Z,15.85
2022-10-31T15:49:55.634Z,15.05
2022-10-31T15:52:45.212Z,13.73
2022-10-31T15:55:23.984Z,13.18
2022-10-31T15:57:59.861Z,16.35
2022-10-31T16:00:34.103Z,17.13
2022-10-31T16:03:05.155Z,14.68
2022-10-31T16:05:59.773Z,15.85
2022-10-31T16:08:32.173Z,14.80
2022-10-31T16:11:08.728Z,17.45
2022-10-31T16:13:38.703Z,19.38
2022-10-31T16:16:43.001Z,21.73
2022-10-31T16:19:01.990Z,18.02
2022-10-31T16:21:35.729Z,16.23
2022-10-31T16:24:06.759Z,16.67
2022-10-31T16:26:34.036Z,17.95
2022-10-31T16:29:05.806Z,16.17
2022-10-31T16:31:40.329Z,19.02
2022-10-31T16:34:06.942Z,21.67
2022-10-31T16:36:39.281Z,22.50
2022-10-31T16:39:06.381Z,18.58
2022-10-31T16:41:36.880Z,30.45
2022-10-31T16:44:07.549Z,22.33
2022-10-31T16:46:34.186Z,22.48
2022-10-31T16:49:00.850Z,22.00
2022-10-31T16:51:27.473Z,21.70
2022-10-31T16:53:54.395Z,24.40
2022-10-31T16:56:29.285Z,21.50
2022-10-31T16:58:56.015Z,25.83
2022-10-31T17:01:22.935Z,21.35
2022-10-31T17:03:49.702Z,21.70
2022-10-31T17:06:16.593Z,22.73
2022-10-31T17:08:43.322Z,23.08
2022-10-31T17:11:19.701Z,23.17
2022-10-31T17:13:46.527Z,21.27
2022-10-31T17:16:15.121Z,22.33
2022-10-31T17:18:43.694Z,23.38
2022-10-31T17:21:23.047Z,22.05
2022-10-31T17:23:50.714Z,23.38
2022-10-31T17:26:17.762Z,21.67
2022-10-31T17:28:44.485Z,22.13
2022-10-31T17:31:21.834Z,26.10
2022-10-31T17:33:48.721Z,24.70
2022-10-31T17:36:15.433Z,22.05
2022-10-31T17:38:42.112Z,22.60
2022-10-31T17:41:11.284Z,19.80
2022-10-31T17:43:38.571Z,23.65
2022-10-31T17:46:05.945Z,20.17
2022-10-31T17:48:34.960Z,20.55
2022-10-31T17:51:05.671Z,20.70
2022-10-31T17:53:34.468Z,21.73
2022-10-31T17:56:03.969Z,24.50
2022-10-31T17:58:30.977Z,20.92
2022-10-31T18:00:58.987Z,23.75
2022-10-31T18:03:26.729Z,21.25
2022-10-31T18:05:59.090Z,21.45
2022-10-31T18:08:27.669Z,19.30
2022-10-31T18:10:55.365Z,21.35
2022-10-31T18:13:22.969Z,19.35
2022-10-31T18:15:49.742Z,21.27
2022-10-31T18:18:16.518Z,19.13
2022-10-31T18:20:43.565Z,17.70
2022-10-31T18:23:10.228Z,19.35
2022-10-31T18:25:38.847Z,26.55
2022-10-31T18:28:07.328Z,22.77
2022-10-31T18:30:34.393Z,23.33
2022-10-31T18:33:03.844Z,23.35
2022-10-31T18:35:30.599Z,22.63
2022-10-31T18:37:59.332Z,23.38
2022-10-31T18:40:29.294Z,19.03
2022-10-31T18:42:55.905Z,19.88
2022-10-31T18:45:33.917Z,22.85
2022-10-31T18:48:14.167Z,21.35
2022-10-31T18:50:41.150Z,20.80
2022-10-31T18:53:08.189Z,21.52
2022-10-31T18:55:38.809Z,23.80
2022-10-31T18:58:05.487Z,19.73
2022-10-31T19:00:32.227Z,23.00
2022-10-31T19:02:59.221Z,22.08
2022-10-31T19:05:26.112Z,21.02
2022-10-31T19:07:52.814Z,20.38
2022-10-31T19:10:19.471Z,16.45
2022-10-31T19:12:46.088Z,21.60
2022-10-31T19:15:12.722Z,20.88
2022-10-31T19:17:39.370Z,18.88
2022-10-31T19:20:06.694Z,21.98
2022-10-31T19:22:33.370Z,21.40
2022-10-31T19:25:00.091Z,18.98
2022-10-31T19:27:28.056Z,21.05
2022-10-31T19:29:54.742Z,22.50
2022-10-31T19:32:21.393Z,20.75
2022-10-31T19:34:48.025Z,18.58
2022-10-31T19:37:14.687Z,19.20
2022-10-31T19:39:44.356Z,21.55
2022-10-31T19:42:11.312Z,20.88
2022-10-31T19:44:37.972Z,18.92
2022-10-31T19:47:04.785Z,24.17
2022-10-31T19:49:31.531Z,20.65
2022-10-31T19:51:58.271Z,25.23
2022-10-31T19:54:25.010Z,22.85
2022-10-31T19:56:51.674Z,25.27
2022-10-31T19:59:18.345Z,22.27
2022-10-31T20:01:45.078Z,17.98
2022-10-31T20:04:11.922Z,21.52
2022-10-31T20:06:40.580Z,21.00
2022-10-31T20:09:10.325Z,24.83
2022-10-31T20:11:38.694Z,20.95
2022-10-31T20:14:06.267Z,23.42
2022-10-31T20:16:34.754Z,19.30
2022-10-31T20:19:01.538Z,21.33
2022-10-31T20:21:30.846Z,24.35
2022-10-31T20:24:02.966Z,22.95
2022-10-31T20:26:30.899Z,22.25
2022-10-31T20:28:59.266Z,25.92
2022-10-31T20:31:28.727Z,19.33
2022-10-31T20:33:55.778Z,23.40
2022-10-31T20:36:23.335Z,26.05
2022-10-31T20:38:52.604Z,22.10
2022-10-31T20:41:19.939Z,25.67
2022-10-31T20:43:47.114Z,25.60
2022-10-31T20:46:19.601Z,26.00
2022-10-31T20:51:19.355Z,26.23
2022-10-31T20:53:46.044Z,24.00
2022-10-31T20:56:15.279Z,24.20
2022-10-31T20:58:42.889Z,27.58
2022-10-31T21:01:19.069Z,20.42
2022-10-31T21:03:46.420Z,22.00
2022-10-31T21:06:13.695Z,27.38
2022-10-31T21:08:41.602Z,25.58
2022-10-31T21:11:11.193Z,20.58
2022-10-31T21:13:42.313Z,21.58
2022-10-31T21:16:17.303Z,24.00
2022-10-31T21:18:45.348Z,21.70
2022-10-31T21:21:18.807Z,20.38
2022-10-31T21:23:45.564Z,19.08
2022-10-31T21:26:15.683Z,21.42
2022-10-31T21:28:42.505Z,20.73
2022-10-31T21:31:13.168Z,20.85
2022-10-31T21:33:40.785Z,19.63
2022-10-31T21:36:08.293Z,19.05
2022-10-31T21:38:36.061Z,17.80
2022-10-31T21:41:05.587Z,22.67
2022-10-31T21:43:34.731Z,18.55
2022-10-31T21:46:13.302Z,20.73
2022-10-31T21:48:42.114Z,19.13
2022-10-31T21:51:11.368Z,18.67
2022-10-31T21:53:57.090Z,22.35
2022-10-31T21:56:23.937Z,21.92
2022-10-31T21:58:51.329Z,24.67
2022-10-31T22:01:18.265Z,20.80
2022-10-31T22:03:45.617Z,17.92
2022-10-31T22:06:13.010Z,19.45
2022-10-31T22:08:40.654Z,20.33
2022-10-31T22:11:11.066Z,19.88
2022-10-31T22:13:37.821Z,22.58
2022-10-31T22:16:06.925Z,26.02
2022-10-31T22:18:34.410Z,19.60
2022-10-31T22:21:06.182Z,21.05
2022-10-31T22:23:33.453Z,22.17
2022-10-31T22:26:05.307Z,25.58
2022-10-31T22:28:33.085Z,18.55
2022-10-31T22:31:04.617Z,20.35
2022-10-31T22:33:31.537Z,18.83
2022-10-31T22:36:06.493Z,19.80
2022-10-31T22:38:34.442Z,18.42
2022-10-31T22:41:01.873Z,21.58
2022-10-31T22:43:28.496Z,20.38
2022-10-31T22:46:00.274Z,17.48
2022-10-31T22:48:27.805Z,20.95
2022-10-31T22:50:54.686Z,33.05
2022-10-31T22:53:21.546Z,21.52
2022-10-31T22:55:51.096Z,19.60
2022-10-31T22:58:17.746Z,19.23
2022-10-31T23:00:44.462Z,17.80
2022-10-31T23:03:11.209Z,19.77
2022-10-31T23:05:37.823Z,18.77
2022-10-31T23:08:05.140Z,18.15
2022-10-31T23:10:33.692Z,20.38
2022-10-31T23:13:19.755Z,18.48
2022-10-31T23:15:46.391Z,18.60
2022-10-31T23:18:19.056Z,16.55
2022-10-31T23:20:59.669Z,16.63
2022-10-31T23:23:26.324Z,15.88
2022-10-31T23:26:11.545Z,14.20
2022-10-31T23:28:38.198Z,15.57
2022-10-31T23:31:05.049Z,17.10
2022-10-31T23:33:31.712Z,22.02
2022-10-31T23:35:58.415Z,18.27
2022-10-31T23:38:25.116Z,15.65
2022-10-31T23:40:51.799Z,17.05
2022-10-31T23:43:18.574Z,14.85
2022-10-31T23:45:45.677Z,17.63
2022-10-31T23:48:12.283Z,16.90
2022-10-31T23:50:38.929Z,19.00
2022-10-31T23:53:05.583Z,20.58
2022-10-31T23:55:32.246Z,17.95
2022-10-31T23:57:58.948Z,20.45
